Garrison, ND

4:42 PM CST on November 24, 2014 (GMT -0600)
Minot Air Force Base | Change Station
CLOSE
Current Station
Airport
Location: Minot AFB,
Elevation: 1667 ft
Nearby Weather Stations
Active Advisory: Special Statement

Elev 1667 ft 48.42 °N, 101.36 °W | Updated 44 minutes ago

Clear
Clear
22 °F
Feels Like 12 °F
N
9
Wind Variable Wind from NW

Today
High -- | Low -- °F
--% Chance of Precip.
Yesterday
High -- | Low -- °F
Precip. -- in
8:03 AM 5:00 PM
Waxing Crescent, 7% visible
Pressure 30.07 in
Visibility 10.0 miles
Clouds Clear
Windchill 12 °F
Dew Point 11 °F
Humidity 63%
Rainfall 0.00 in
Snow Depth Not available.
UV 0 out of 12
Pollen .10 out of 12
Air Quality Not available.
Flu Activity Not available.
METAR KMIB 242158Z AUTO 31008KT 10SM CLR M06/M12 A2995 RMK AO2 SLP182 T10561116

More Conditions Fewer Conditions

Pressure 30.07 in
Visibility 10.0 miles
Clouds Clear
Windchill 12 °F
Dew Point 11 °F
Humidity 63%
Rainfall 0.00 in
Snow Depth Not available.
UV 0 out of 12
Pollen .10 out of 12
Air Quality Not available.
Flu Activity Not available.
METAR KMIB 242158Z AUTO 31008KT 10SM CLR M06/M12 A2995 RMK AO2 SLP182 T10561116

More Conditions Fewer Conditions

10-Day Weather Forecast

Almanac

Astronomy

Nov. 24, 2014 Rise Set
Actual Time
Civil Twilight
Nautical Twilight
Astronomical Twilight
Moon
Length of Visible Light
Length of Day
Tomorrow will be .
, % of the Moon is Illuminated

Today's Extremes

State Highs State Lows

Community

WunderPhotos

Upload Photos

1,773,427 photos uploaded!

WunderBlogs® & News

Nearby

Air Quality

  Air Quality AQ Index Pollutant
Not available.

Snow Depth

Station Depth Elevation

Earthquake Activity

City Distance Mag. Time & Date
Minimum magnitude displayed is 2.5.

Coastal Water Temperatures

Place Temperature

Nearby Weather Stations